createdAt,value
2022-09-10T00:01:40.748Z,17.73
2022-09-10T00:04:12.851Z,18.27
2022-09-10T00:06:45.303Z,18.29
2022-09-10T00:09:14.670Z,18.18
2022-09-10T00:11:43.604Z,17.60
2022-09-10T00:14:19.938Z,18.29
2022-09-10T00:16:48.461Z,18.32
2022-09-10T00:19:17.370Z,18.32
2022-09-10T00:21:47.089Z,18.26
2022-09-10T00:24:15.583Z,18.19
2022-09-10T00:26:44.167Z,18.15
2022-09-10T00:29:15.183Z,17.44
2022-09-10T00:31:43.889Z,18.11
2022-09-10T00:34:14.248Z,18.02
2022-09-10T00:36:44.923Z,18.05
2022-09-10T00:39:16.442Z,18.05
2022-09-10T00:41:47.777Z,18.05
2022-09-10T00:44:56.010Z,18.21
2022-09-10T00:47:30.895Z,18.25
2022-09-10T00:50:05.487Z,17.63
2022-09-10T00:52:39.431Z,18.33
2022-09-10T00:55:11.591Z,18.29
2022-09-10T00:57:41.237Z,18.35
2022-09-10T01:00:13.756Z,18.23
2022-09-10T01:02:43.750Z,18.29
2022-09-10T01:05:13.428Z,18.21
2022-09-10T01:07:42.865Z,18.19
2022-09-10T01:10:18.027Z,18.18
2022-09-10T01:13:15.956Z,18.14
2022-09-10T01:15:51.616Z,17.90
2022-09-10T01:18:34.912Z,18.06
2022-09-10T01:21:19.362Z,18.16
2022-09-10T01:24:30.655Z,18.11
2022-09-10T01:27:41.284Z,18.15
2022-09-10T01:30:15.738Z,18.17
2022-09-10T01:32:59.474Z,18.10
2022-09-10T01:35:39.246Z,18.20
2022-09-10T01:38:15.787Z,18.04
2022-09-10T01:40:46.425Z,18.25
2022-09-10T01:43:20.122Z,18.14
2022-09-10T01:46:11.635Z,18.21
2022-09-10T01:48:59.899Z,18.27
2022-09-10T01:51:40.309Z,18.27
2022-09-10T01:54:28.475Z,18.28
2022-09-10T01:57:10.987Z,18.28
2022-09-10T01:59:51.512Z,18.10
2022-09-10T02:02:25.260Z,17.81
2022-09-10T02:04:55.498Z,18.39
2022-09-10T02:07:27.230Z,18.44
2022-09-10T02:09:57.454Z,18.46
2022-09-10T02:12:27.879Z,18.40
2022-09-10T02:15:28.650Z,18.37
2022-09-10T02:18:07.450Z,18.48
2022-09-10T02:20:35.794Z,18.55
2022-09-10T02:23:04.906Z,18.47
2022-09-10T02:25:37.255Z,18.59
2022-09-10T02:28:06.199Z,18.61
2022-09-10T02:30:36.261Z,18.64
2022-09-10T02:33:04.791Z,18.66
2022-09-10T02:35:33.128Z,18.76
2022-09-10T02:38:01.547Z,18.79
2022-09-10T02:40:31.751Z,18.74
2022-09-10T02:43:00.467Z,18.79
2022-09-10T02:45:30.210Z,18.82
2022-09-10T02:48:01.565Z,18.84
2022-09-10T02:50:31.257Z,18.81
2022-09-10T02:53:00.986Z,18.87
2022-09-10T02:55:29.371Z,18.85
2022-09-10T02:57:58.316Z,18.88
2022-09-10T03:00:27.040Z,18.96
2022-09-10T03:03:00.869Z,18.91
2022-09-10T03:05:32.699Z,19.01
2022-09-10T03:08:01.431Z,19.00
2022-09-10T03:10:31.745Z,19.02
2022-09-10T03:13:00.428Z,19.03
2022-09-10T03:15:29.567Z,18.82
2022-09-10T03:17:58.261Z,18.97
2022-09-10T03:20:27.480Z,18.96
2022-09-10T03:22:57.242Z,18.99
2022-09-10T03:25:25.627Z,19.04
2022-09-10T03:27:59.789Z,19.02
2022-09-10T03:30:29.144Z,18.99
2022-09-10T03:32:57.793Z,18.82
2022-09-10T03:35:26.208Z,18.93
2022-09-10T03:37:56.035Z,18.88
2022-09-10T03:40:24.307Z,19.02
2022-09-10T03:42:52.601Z,19.09
2022-09-10T03:45:20.820Z,19.19
2022-09-10T03:47:49.057Z,19.19
2022-09-10T03:50:20.306Z,19.28
2022-09-10T03:52:48.608Z,19.29
2022-09-10T03:55:18.950Z,19.33
2022-09-10T03:57:47.385Z,19.39
2022-09-10T04:00:17.718Z,19.40
2022-09-10T04:02:46.877Z,19.42
2022-09-10T04:05:16.000Z,19.48
2022-09-10T04:07:44.261Z,19.54
2022-09-10T04:10:14.680Z,19.42
2022-09-10T04:12:45.176Z,19.58
2022-09-10T04:15:13.767Z,19.57
2022-09-10T04:17:42.252Z,19.59
2022-09-10T04:20:12.010Z,19.63
2022-09-10T04:22:41.183Z,19.65
2022-09-10T04:25:10.714Z,19.60
2022-09-10T04:27:40.003Z,19.58
2022-09-10T04:30:12.416Z,19.53
2022-09-10T04:32:41.070Z,19.52
2022-09-10T04:35:11.170Z,19.53
2022-09-10T04:37:39.579Z,19.37
2022-09-10T04:40:09.667Z,19.44
2022-09-10T04:42:39.046Z,19.46
2022-09-10T04:45:10.927Z,19.51
2022-09-10T04:47:39.375Z,19.60
2022-09-10T04:50:10.263Z,19.63
2022-09-10T04:52:39.031Z,19.58
2022-09-10T04:55:09.692Z,19.70
2022-09-10T04:57:38.251Z,19.72
2022-09-10T05:00:09.007Z,19.76
2022-09-10T05:02:40.636Z,19.74
2022-09-10T05:05:09.943Z,19.78
2022-09-10T05:07:38.647Z,19.76
2022-09-10T05:10:10.509Z,19.80
2022-09-10T05:12:39.612Z,19.72
2022-09-10T05:15:09.984Z,19.80
2022-09-10T05:17:39.833Z,19.79
2022-09-10T05:20:10.150Z,19.81
2022-09-10T05:22:45.392Z,19.82
2022-09-10T05:25:13.779Z,19.82
2022-09-10T05:27:42.790Z,19.78
2022-09-10T05:30:15.268Z,19.59
2022-09-10T05:32:45.184Z,19.74
2022-09-10T05:35:14.555Z,19.61
2022-09-10T05:37:46.377Z,19.59
2022-09-10T05:40:16.256Z,19.86
2022-09-10T05:42:44.932Z,19.91
2022-09-10T05:45:14.019Z,19.98
2022-09-10T05:47:45.474Z,19.95
2022-09-10T05:50:18.621Z,20.01
2022-09-10T05:52:47.211Z,19.99
2022-09-10T05:55:15.774Z,20.06
2022-09-10T05:57:44.106Z,20.28
2022-09-10T06:00:15.951Z,20.25
2022-09-10T06:02:53.269Z,20.41
2022-09-10T06:05:31.991Z,20.59
2022-09-10T06:08:05.415Z,20.55
2022-09-10T06:10:38.558Z,20.88
2022-09-10T06:13:07.387Z,20.80
2022-09-10T06:15:37.889Z,20.87
2022-09-10T06:18:07.611Z,20.83
2022-09-10T06:20:37.001Z,20.77
2022-09-10T06:23:06.999Z,20.72
2022-09-10T06:25:35.257Z,20.65
2022-09-10T06:28:03.933Z,20.73
2022-09-10T06:30:32.449Z,20.80
2022-09-10T06:33:00.984Z,20.89
2022-09-10T06:35:32.402Z,21.00
2022-09-10T06:38:02.071Z,20.96
2022-09-10T06:40:30.367Z,20.97
2022-09-10T06:43:06.090Z,20.81
2022-09-10T06:46:02.032Z,20.94
2022-09-10T06:48:48.540Z,20.98
2022-09-10T06:51:20.535Z,21.05
2022-09-10T06:53:51.294Z,21.06
2022-09-10T06:56:22.095Z,21.13
2022-09-10T06:58:51.726Z,21.11
2022-09-10T07:01:23.786Z,21.17
2022-09-10T07:03:57.823Z,21.14
2022-09-10T07:06:31.822Z,21.04
2022-09-10T07:09:05.866Z,21.08
2022-09-10T07:11:41.529Z,21.18
2022-09-10T07:14:13.895Z,21.20
2022-09-10T07:16:44.567Z,21.25
2022-09-10T07:19:14.898Z,21.16
2022-09-10T07:21:47.536Z,21.36
2022-09-10T07:24:18.123Z,21.50
2022-09-10T07:27:00.324Z,21.52
2022-09-10T07:29:31.315Z,21.48
2022-09-10T07:32:01.704Z,21.44
2022-09-10T07:34:30.182Z,21.44
2022-09-10T07:36:59.920Z,21.76
2022-09-10T07:39:29.317Z,22.04
2022-09-10T07:42:00.318Z,22.44
2022-09-10T07:44:31.268Z,22.71
2022-09-10T07:47:03.415Z,22.75
2022-09-10T07:49:33.012Z,22.81
2022-09-10T07:52:03.343Z,22.48
2022-09-10T07:54:37.774Z,22.56
2022-09-10T07:57:06.957Z,22.46
2022-09-10T07:59:37.065Z,22.33
2022-09-10T08:02:06.468Z,21.87
2022-09-10T08:04:37.583Z,22.04
2022-09-10T08:07:11.250Z,22.10
2022-09-10T08:09:43.198Z,22.16
2022-09-10T08:12:17.350Z,22.37
2022-09-10T08:14:46.368Z,22.56
2022-09-10T08:17:14.990Z,22.80
2022-09-10T08:19:45.914Z,23.06
2022-09-10T08:22:15.654Z,23.07
2022-09-10T08:24:51.018Z,23.11
2022-09-10T08:27:20.194Z,23.03
2022-09-10T08:29:50.137Z,23.17
2022-09-10T08:32:18.490Z,23.25
2022-09-10T08:34:47.157Z,22.95
2022-09-10T08:37:17.277Z,22.87
2022-09-10T08:39:45.747Z,22.93
2022-09-10T08:42:21.625Z,22.81
2022-09-10T08:44:55.429Z,22.99
2022-09-10T08:47:36.143Z,22.87
2022-09-10T08:50:20.215Z,22.97
2022-09-10T08:52:55.963Z,22.60
2022-09-10T08:55:32.915Z,22.70
2022-09-10T08:58:11.468Z,22.79
2022-09-10T09:00:45.413Z,23.12
2022-09-10T09:03:24.136Z,23.19
2022-09-10T09:05:57.303Z,23.38
2022-09-10T09:08:38.517Z,23.17
2022-09-10T09:11:25.387Z,22.70
2022-09-10T09:14:12.834Z,22.27
2022-09-10T09:17:01.960Z,22.13
2022-09-10T09:19:35.015Z,22.47
2022-09-10T09:22:17.381Z,22.57
2022-09-10T09:24:55.992Z,22.82
2022-09-10T09:27:27.159Z,23.04
2022-09-10T09:30:02.736Z,23.32
2022-09-10T09:32:37.249Z,23.43
2022-09-10T09:35:22.588Z,23.50
2022-09-10T09:38:08.945Z,23.51
2022-09-10T09:40:46.743Z,23.51
2022-09-10T09:43:25.291Z,23.36
2022-09-10T09:45:54.982Z,22.93
2022-09-10T09:48:24.990Z,22.90
2022-09-10T09:50:57.201Z,22.93
2022-09-10T09:53:27.624Z,22.95
2022-09-10T09:56:00.328Z,22.98
2022-09-10T09:58:34.969Z,23.45
2022-09-10T10:01:18.228Z,23.86
2022-09-10T10:03:52.221Z,23.89
2022-09-10T10:06:24.745Z,24.08
2022-09-10T10:09:06.142Z,24.20
2022-09-10T10:11:52.180Z,23.76
2022-09-10T10:14:27.724Z,23.93
2022-09-10T10:17:00.388Z,24.33
2022-09-10T10:19:40.316Z,24.48
2022-09-10T10:22:24.431Z,23.85
2022-09-10T10:24:54.427Z,24.40
2022-09-10T10:27:32.667Z,24.65
2022-09-10T10:30:06.063Z,24.74
2022-09-10T10:32:44.819Z,24.75
2022-09-10T10:35:36.110Z,24.16
2022-09-10T10:38:32.478Z,24.26
2022-09-10T10:41:42.795Z,24.28
2022-09-10T10:44:33.666Z,24.51
2022-09-10T10:47:25.123Z,25.06
2022-09-10T10:50:08.991Z,24.18
2022-09-10T10:52:45.670Z,24.28
2022-09-10T10:55:23.195Z,24.59
2022-09-10T10:58:18.878Z,25.22
2022-09-10T11:00:54.950Z,25.37
2022-09-10T11:03:30.543Z,25.52
2022-09-10T11:06:04.995Z,25.05
2022-09-10T11:08:38.604Z,24.56
2022-09-10T11:11:14.309Z,24.33
2022-09-10T11:13:52.150Z,24.54
2022-09-10T11:16:28.707Z,24.44
2022-09-10T11:19:03.637Z,24.44
2022-09-10T11:21:39.282Z,24.18
2022-09-10T11:24:17.236Z,23.70
2022-09-10T11:26:49.929Z,23.23
2022-09-10T11:29:32.874Z,23.55
2022-09-10T11:32:09.456Z,23.81
2022-09-10T11:35:03.549Z,24.33
2022-09-10T11:37:48.466Z,24.29
2022-09-10T11:40:25.456Z,24.61
2022-09-10T11:42:59.505Z,25.01
2022-09-10T11:45:38.092Z,24.20
2022-09-10T11:48:18.267Z,23.82
2022-09-10T11:50:53.395Z,24.17
2022-09-10T11:53:24.805Z,24.01
2022-09-10T11:56:43.461Z,23.92
2022-09-10T11:59:42.402Z,24.01
2022-09-10T12:02:58.496Z,24.05
2022-09-10T12:05:35.584Z,24.50
2022-09-10T12:08:17.561Z,24.69
2022-09-10T12:10:57.936Z,24.25
2022-09-10T12:13:26.497Z,24.58
2022-09-10T12:15:58.502Z,24.96
2022-09-10T12:18:38.708Z,25.02
2022-09-10T12:21:27.993Z,25.06
2022-09-10T12:23:57.606Z,25.21
2022-09-10T12:26:26.315Z,25.37
2022-09-10T12:29:05.378Z,25.11
2022-09-10T12:32:15.548Z,24.62
2022-09-10T12:34:44.887Z,25.03
2022-09-10T12:37:28.610Z,25.35
2022-09-10T12:40:45.279Z,25.63
2022-09-10T12:43:54.442Z,25.77
2022-09-10T12:46:25.681Z,25.94
2022-09-10T12:49:11.918Z,25.54
2022-09-10T12:51:58.725Z,25.44
2022-09-10T12:54:48.373Z,25.41
2022-09-10T12:57:31.105Z,24.84
2022-09-10T13:00:18.745Z,24.79
2022-09-10T13:02:55.090Z,25.21
2022-09-10T13:05:31.493Z,25.49
2022-09-10T13:08:18.183Z,25.28
2022-09-10T13:11:05.730Z,25.38
2022-09-10T13:13:39.062Z,25.58
2022-09-10T13:16:13.408Z,25.67
2022-09-10T13:18:41.895Z,25.72
2022-09-10T13:21:52.905Z,24.98
2022-09-10T13:25:01.184Z,25.34
2022-09-10T13:27:44.426Z,25.40
2022-09-10T13:30:18.758Z,25.23
2022-09-10T13:32:52.977Z,25.49
2022-09-10T13:36:06.672Z,25.43
2022-09-10T13:39:29.534Z,25.67
2022-09-10T13:42:31.285Z,25.70
2022-09-10T13:45:29.300Z,25.34
2022-09-10T13:48:04.165Z,25.31
2022-09-10T13:50:40.241Z,25.23
2022-09-10T13:53:11.603Z,25.43
2022-09-10T13:55:41.203Z,25.54
2022-09-10T13:58:15.512Z,25.24
2022-09-10T14:00:55.961Z,24.66
2022-09-10T14:03:29.777Z,24.95
2022-09-10T14:06:04.024Z,24.91
2022-09-10T14:08:38.444Z,25.11
2022-09-10T14:11:15.917Z,24.95
2022-09-10T14:13:51.873Z,24.21
2022-09-10T14:16:30.079Z,24.34
2022-09-10T14:19:02.830Z,24.73
2022-09-10T14:21:31.607Z,24.97
2022-09-10T14:24:00.862Z,24.09
2022-09-10T14:26:33.552Z,23.35
2022-09-10T14:29:04.003Z,24.15
2022-09-10T14:31:38.248Z,24.17
2022-09-10T14:34:36.121Z,24.26
2022-09-10T14:37:45.194Z,24.17
2022-09-10T14:40:19.731Z,24.04
2022-09-10T14:42:49.832Z,24.02
2022-09-10T14:45:41.630Z,24.18
2022-09-10T14:48:36.961Z,23.75
2022-09-10T14:51:14.420Z,23.46
2022-09-10T14:53:43.783Z,23.48
2022-09-10T14:56:23.226Z,23.56
2022-09-10T14:58:59.351Z,23.51
2022-09-10T15:01:28.447Z,23.62
2022-09-10T15:03:59.270Z,23.75
2022-09-10T15:06:27.966Z,23.79
2022-09-10T15:08:57.084Z,23.95
2022-09-10T15:11:27.543Z,24.13
2022-09-10T15:13:58.752Z,24.17
2022-09-10T15:16:27.571Z,24.07
2022-09-10T15:18:58.171Z,24.18
2022-09-10T15:21:26.536Z,24.18
2022-09-10T15:23:54.879Z,24.02
2022-09-10T15:26:23.268Z,24.09
2022-09-10T15:28:52.665Z,24.13
2022-09-10T15:31:21.080Z,24.16
2022-09-10T15:33:49.394Z,24.21
2022-09-10T15:36:19.286Z,24.26
2022-09-10T15:38:47.509Z,23.84
2022-09-10T15:41:16.946Z,23.51
2022-09-10T15:43:45.767Z,23.61
2022-09-10T15:46:17.066Z,23.69
2022-09-10T15:48:47.455Z,23.60
2022-09-10T15:51:21.392Z,23.56
2022-09-10T15:53:52.294Z,23.40
2022-09-10T15:56:24.182Z,22.76
2022-09-10T15:58:55.057Z,22.54
2022-09-10T16:01:25.022Z,22.96
2022-09-10T16:03:56.126Z,23.18
2022-09-10T16:06:28.427Z,22.91
2022-09-10T16:09:01.947Z,22.80
2022-09-10T16:11:32.170Z,22.88
2022-09-10T16:14:04.733Z,23.07
2022-09-10T16:16:34.766Z,23.06
2022-09-10T16:19:04.261Z,22.98
2022-09-10T16:21:37.148Z,23.00
2022-09-10T16:24:07.324Z,22.71
2022-09-10T16:26:38.683Z,22.94
2022-09-10T16:29:12.876Z,22.98
2022-09-10T16:31:41.631Z,22.63
2022-09-10T16:34:14.104Z,22.39
2022-09-10T16:36:44.621Z,21.71
2022-09-10T16:39:15.539Z,22.30
2022-09-10T16:41:46.339Z,22.56
2022-09-10T16:44:17.469Z,22.48
2022-09-10T16:46:47.081Z,22.64
2022-09-10T16:49:18.156Z,22.34
2022-09-10T16:51:49.340Z,22.54
2022-09-10T16:54:19.842Z,22.21
2022-09-10T16:56:50.242Z,22.59
2022-09-10T16:59:20.812Z,22.49
2022-09-10T17:01:49.531Z,22.53
2022-09-10T17:04:23.370Z,22.24
2022-09-10T17:06:56.102Z,22.54
2022-09-10T17:09:24.796Z,22.71
2022-09-10T17:11:53.339Z,22.83
2022-09-10T17:14:21.626Z,22.91
2022-09-10T17:16:49.966Z,22.89
2022-09-10T17:19:23.140Z,22.59
2022-09-10T17:21:56.154Z,22.91
2022-09-10T17:24:26.611Z,23.03
2022-09-10T17:26:56.122Z,23.00
2022-09-10T17:29:26.571Z,23.12
2022-09-10T17:31:57.353Z,23.02
2022-09-10T17:34:27.090Z,23.21
2022-09-10T17:36:56.694Z,23.30
2022-09-10T17:39:28.180Z,23.27
2022-09-10T17:41:57.062Z,23.11
2022-09-10T17:44:25.727Z,23.05
2022-09-10T17:46:55.109Z,23.13
2022-09-10T17:49:23.930Z,23.04
2022-09-10T17:51:53.297Z,22.93
2022-09-10T17:54:23.444Z,23.01
2022-09-10T17:56:51.932Z,22.99
2022-09-10T17:59:21.193Z,23.00
2022-09-10T18:01:49.629Z,22.79
2022-09-10T18:04:19.288Z,22.73
2022-09-10T18:06:52.065Z,22.62
2022-09-10T18:09:23.538Z,22.70
2022-09-10T18:11:51.963Z,22.59
2022-09-10T18:14:21.920Z,22.56
2022-09-10T18:16:51.429Z,22.13
2022-09-10T18:19:20.062Z,22.57
2022-09-10T18:21:51.032Z,22.52
2022-09-10T18:24:24.021Z,22.45
2022-09-10T18:26:54.805Z,22.47
2022-09-10T18:29:25.965Z,22.42
2022-09-10T18:31:56.244Z,22.40
2022-09-10T18:34:27.753Z,22.47
2022-09-10T18:36:58.350Z,22.40
2022-09-10T18:39:30.514Z,22.33
2022-09-10T18:42:00.936Z,22.31
2022-09-10T18:44:33.216Z,22.43
2022-09-10T18:47:02.005Z,22.31
2022-09-10T18:49:30.372Z,22.33
2022-09-10T18:51:58.761Z,22.34
2022-09-10T18:54:29.631Z,22.31
2022-09-10T18:56:58.751Z,22.29
2022-09-10T18:59:27.824Z,22.32
2022-09-10T19:01:56.875Z,22.27
2022-09-10T19:04:27.642Z,22.26
2022-09-10T19:06:56.519Z,22.16
2022-09-10T19:09:29.670Z,22.04
2022-09-10T19:12:00.406Z,22.11
2022-09-10T19:14:35.663Z,22.10
2022-09-10T19:17:04.745Z,22.08
2022-09-10T19:19:36.200Z,22.13
2022-09-10T19:22:07.287Z,22.10
2022-09-10T19:24:54.455Z,22.09
2022-09-10T19:27:23.330Z,22.13
2022-09-10T19:29:51.902Z,22.14
2022-09-10T19:32:21.057Z,22.11
2022-09-10T19:34:50.992Z,22.12
2022-09-10T19:37:19.571Z,22.16
2022-09-10T19:39:49.245Z,22.18
2022-09-10T19:42:17.873Z,22.15
2022-09-10T19:44:46.167Z,22.19
2022-09-10T19:47:14.451Z,22.21
2022-09-10T19:49:43.147Z,22.17
2022-09-10T19:52:11.723Z,21.98
2022-09-10T19:54:39.914Z,22.18
2022-09-10T19:57:09.541Z,22.08
2022-09-10T19:59:38.144Z,22.11
2022-09-10T20:02:06.481Z,22.01
2022-09-10T20:04:36.207Z,21.98
2022-09-10T20:07:05.009Z,21.93
2022-09-10T20:09:36.733Z,21.92
2022-09-10T20:12:10.198Z,21.95
2022-09-10T20:14:39.046Z,21.89
2022-09-10T20:17:07.471Z,21.89
2022-09-10T20:19:36.061Z,21.90
2022-09-10T20:22:04.273Z,21.85
2022-09-10T20:24:32.929Z,21.82
2022-09-10T20:27:01.245Z,21.85
2022-09-10T20:29:32.862Z,21.83
2022-09-10T20:32:01.406Z,21.75
2022-09-10T20:34:31.243Z,21.68
2022-09-10T20:36:59.887Z,21.68
2022-09-10T20:39:28.208Z,21.66
2022-09-10T20:41:56.487Z,21.61
2022-09-10T20:44:26.151Z,21.61
2022-09-10T20:46:57.578Z,21.54
2022-09-10T20:49:25.938Z,21.46
2022-09-10T20:51:54.143Z,21.35
2022-09-10T20:54:22.598Z,21.21
2022-09-10T20:56:50.823Z,21.22
2022-09-10T20:59:20.858Z,20.99
2022-09-10T21:01:52.927Z,20.84
2022-09-10T21:04:22.928Z,21.14
2022-09-10T21:06:51.283Z,21.11
2022-09-10T21:09:19.622Z,21.07
2022-09-10T21:11:47.834Z,21.04
2022-09-10T21:14:17.151Z,21.09
2022-09-10T21:16:47.250Z,20.78
2022-09-10T21:19:17.581Z,20.90
2022-09-10T21:21:48.783Z,20.91
2022-09-10T21:24:19.281Z,21.00
2022-09-10T21:26:47.713Z,21.01
2022-09-10T21:29:17.907Z,20.84
2022-09-10T21:31:46.328Z,21.03
2022-09-10T21:34:15.520Z,20.97
2022-09-10T21:36:44.094Z,20.96
2022-09-10T21:39:18.415Z,21.05
2022-09-10T21:41:48.821Z,20.93
2022-09-10T21:44:20.297Z,20.79
2022-09-10T21:46:49.865Z,20.93
2022-09-10T21:49:18.872Z,20.84
2022-09-10T21:51:47.573Z,20.58
2022-09-10T21:54:20.720Z,20.70
2022-09-10T21:56:50.503Z,20.85
2022-09-10T21:59:19.383Z,20.75
2022-09-10T22:01:48.617Z,20.75
2022-09-10T22:04:21.726Z,20.79
2022-09-10T22:06:51.042Z,20.59
2022-09-10T22:09:21.309Z,20.63
2022-09-10T22:11:52.015Z,20.49
2022-09-10T22:14:23.268Z,20.55
2022-09-10T22:16:53.728Z,19.78
2022-09-10T22:19:23.950Z,20.47
2022-09-10T22:21:54.049Z,20.48
2022-09-10T22:24:24.083Z,20.38
2022-09-10T22:26:52.695Z,20.34
2022-09-10T22:29:22.262Z,20.30
2022-09-10T22:31:50.710Z,20.21
2022-09-10T22:34:20.667Z,20.17
2022-09-10T22:36:50.301Z,20.13
2022-09-10T22:39:20.821Z,19.72
2022-09-10T22:41:52.133Z,19.85
2022-09-10T22:44:20.524Z,19.97
2022-09-10T22:46:49.139Z,20.06
2022-09-10T22:49:17.977Z,19.62
2022-09-10T22:51:46.870Z,20.18
2022-09-10T22:54:16.577Z,20.14
2022-09-10T22:56:45.531Z,20.09
2022-09-10T22:59:16.475Z,20.13
2022-09-10T23:01:48.170Z,20.13
2022-09-10T23:04:17.292Z,20.02
2022-09-10T23:06:45.722Z,20.12
2022-09-10T23:09:15.895Z,20.12
2022-09-10T23:11:45.441Z,19.51
2022-09-10T23:14:19.263Z,19.86
2022-09-10T23:16:50.019Z,19.88
2022-09-10T23:19:19.926Z,19.82
2022-09-10T23:21:51.077Z,19.72
2022-09-10T23:24:21.948Z,19.82
2022-09-10T23:26:50.681Z,19.62
2022-09-10T23:29:23.008Z,19.73
2022-09-10T23:31:53.245Z,19.65
2022-09-10T23:34:22.851Z,19.71
2022-09-10T23:36:51.504Z,19.63
2022-09-10T23:39:22.448Z,19.50
2022-09-10T23:41:53.320Z,19.59
2022-09-10T23:44:23.709Z,19.61
2022-09-10T23:46:53.466Z,19.49
2022-09-10T23:49:21.709Z,19.58
2022-09-10T23:51:50.579Z,19.58
2022-09-10T23:54:19.072Z,19.56
2022-09-10T23:56:47.406Z,19.48
2022-09-10T23:59:16.286Z,19.59
